createdAt,value
2023-03-21T00:02:17.008Z,26.50
2023-03-21T00:04:52.253Z,28.83
2023-03-21T00:07:17.338Z,28.95
2023-03-21T00:09:46.373Z,29.70
2023-03-21T00:12:16.906Z,30.05
2023-03-21T00:14:47.336Z,30.23
2023-03-21T00:17:22.708Z,28.62
2023-03-21T00:20:03.441Z,27.73
2023-03-21T00:22:36.246Z,28.55
2023-03-21T00:25:08.291Z,28.98
2023-03-21T00:27:56.940Z,30.30
2023-03-21T00:30:10.394Z,28.27
2023-03-21T00:32:54.927Z,28.15
2023-03-21T00:35:45.280Z,27.90
2023-03-21T00:37:43.321Z,28.42
2023-03-21T00:40:25.344Z,26.45
2023-03-21T00:42:43.362Z,27.07
2023-03-21T00:45:12.507Z,27.27
2023-03-21T00:47:41.877Z,28.55
2023-03-21T00:50:12.186Z,28.70
2023-03-21T00:52:42.462Z,28.07
2023-03-21T00:55:16.804Z,26.85
2023-03-21T00:57:50.143Z,27.07
2023-03-21T01:00:18.640Z,26.33
2023-03-21T01:03:04.320Z,26.10
2023-03-21T01:05:49.104Z,27.00
2023-03-21T01:08:25.398Z,26.77
2023-03-21T01:10:52.596Z,24.87
2023-03-21T01:13:23.599Z,24.98
2023-03-21T01:15:55.197Z,25.15
2023-03-21T01:18:27.130Z,24.70
2023-03-21T01:20:58.446Z,22.70
2023-03-21T01:23:28.315Z,22.65
2023-03-21T01:25:58.018Z,23.52
2023-03-21T01:28:27.849Z,23.67
2023-03-21T01:30:56.838Z,22.60
2023-03-21T01:33:25.843Z,22.95
2023-03-21T01:36:06.315Z,21.87
2023-03-21T01:38:25.931Z,22.45
2023-03-21T01:40:55.085Z,22.32
2023-03-21T01:43:33.553Z,23.98
2023-03-21T01:46:12.188Z,23.98
2023-03-21T01:49:05.684Z,24.23
2023-03-21T01:51:40.509Z,23.62
2023-03-21T01:54:15.425Z,22.50
2023-03-21T01:56:46.349Z,22.32
2023-03-21T01:59:26.082Z,23.18
2023-03-21T02:02:30.937Z,24.55
2023-03-21T02:05:04.918Z,26.70
2023-03-21T02:07:35.694Z,26.33
2023-03-21T02:10:09.822Z,26.57
2023-03-21T02:12:40.759Z,28.32
2023-03-21T02:15:11.917Z,28.27
2023-03-21T02:18:00.372Z,24.57
2023-03-21T02:21:00.472Z,26.20
2023-03-21T02:23:53.302Z,23.98
2023-03-21T02:26:48.150Z,26.17
2023-03-21T02:29:52.290Z,24.57
2023-03-21T02:32:49.499Z,22.93
2023-03-21T02:35:44.238Z,23.38
2023-03-21T02:38:49.371Z,23.83
2023-03-21T02:41:42.732Z,22.25
2023-03-21T02:44:23.641Z,23.15
2023-03-21T02:47:08.553Z,24.92
2023-03-21T02:49:57.922Z,24.30
2023-03-21T02:52:38.728Z,24.57
2023-03-21T02:55:00.971Z,23.87
2023-03-21T02:57:42.168Z,23.90
2023-03-21T03:00:15.801Z,26.60
2023-03-21T03:02:41.550Z,25.12
2023-03-21T03:05:21.914Z,27.90
2023-03-21T03:08:26.487Z,27.00
2023-03-21T03:11:18.654Z,27.80
2023-03-21T03:14:40.087Z,27.00
2023-03-21T03:17:28.196Z,27.17
2023-03-21T03:20:15.147Z,25.45
2023-03-21T03:22:41.670Z,26.93
2023-03-21T03:25:23.091Z,27.48
2023-03-21T03:27:44.430Z,27.45
2023-03-21T03:30:14.566Z,27.22
2023-03-21T03:32:50.776Z,26.93
2023-03-21T03:35:22.824Z,26.42
2023-03-21T03:37:57.097Z,26.75
2023-03-21T03:40:30.562Z,27.07
2023-03-21T03:43:15.852Z,27.45
2023-03-21T03:45:52.648Z,29.15
2023-03-21T03:48:40.984Z,28.37
2023-03-21T03:51:24.133Z,27.13
2023-03-21T03:54:13.780Z,27.58
2023-03-21T03:56:44.498Z,26.23
2023-03-21T03:59:16.717Z,26.52
2023-03-21T04:01:47.391Z,25.92
2023-03-21T04:04:16.785Z,25.02
2023-03-21T04:06:48.378Z,26.25
2023-03-21T04:09:23.546Z,25.77
2023-03-21T04:11:51.096Z,25.88
2023-03-21T04:14:21.153Z,25.68
2023-03-21T04:16:50.279Z,25.72
2023-03-21T04:19:20.035Z,26.12
2023-03-21T04:21:50.369Z,25.97
2023-03-21T04:24:21.010Z,25.23
2023-03-21T04:26:52.212Z,27.50
2023-03-21T04:29:24.377Z,29.37
2023-03-21T04:32:02.188Z,27.85
2023-03-21T04:34:31.999Z,28.65
2023-03-21T04:37:05.060Z,28.95
2023-03-21T04:39:34.594Z,28.42
2023-03-21T04:42:03.293Z,30.77
2023-03-21T04:44:33.562Z,32.20
2023-03-21T04:47:02.287Z,33.85
2023-03-21T04:49:32.569Z,34.67
2023-03-21T04:52:03.058Z,34.03
2023-03-21T04:54:32.206Z,40.52
2023-03-21T04:57:02.537Z,44.53
2023-03-21T04:59:31.345Z,41.05
2023-03-21T05:02:00.991Z,34.35
2023-03-21T05:04:30.691Z,32.33
2023-03-21T05:06:59.507Z,34.10
2023-03-21T05:09:28.509Z,39.50
2023-03-21T05:11:59.370Z,40.55
2023-03-21T05:14:28.806Z,30.37
2023-03-21T05:16:57.455Z,30.97
2023-03-21T05:19:36.127Z,29.85
2023-03-21T05:22:08.821Z,31.40
2023-03-21T05:24:41.458Z,29.82
2023-03-21T05:27:14.320Z,29.23
2023-03-21T05:29:45.009Z,30.27
2023-03-21T05:32:13.851Z,30.17
2023-03-21T05:34:42.903Z,29.95
2023-03-21T05:37:13.220Z,32.42
2023-03-21T05:39:48.820Z,31.97
2023-03-21T05:44:52.248Z,32.98
2023-03-21T05:47:25.964Z,31.73
2023-03-21T05:49:55.336Z,30.15
2023-03-21T05:52:25.727Z,30.30
2023-03-21T05:54:55.849Z,29.72
2023-03-21T05:57:28.128Z,29.10
2023-03-21T06:00:02.644Z,30.15
2023-03-21T06:02:33.246Z,30.17
2023-03-21T06:05:04.797Z,29.60
2023-03-21T06:07:36.972Z,29.80
2023-03-21T06:10:07.884Z,28.38
2023-03-21T06:12:37.196Z,29.20
2023-03-21T06:15:21.978Z,30.32
2023-03-21T06:17:56.660Z,29.35
2023-03-21T06:20:25.452Z,29.05
2023-03-21T06:22:58.292Z,28.02
2023-03-21T06:25:27.280Z,25.43
2023-03-21T06:27:56.182Z,27.50
2023-03-21T06:30:26.010Z,29.42
2023-03-21T06:33:11.884Z,29.23
2023-03-21T06:35:40.928Z,30.17
2023-03-21T06:38:11.331Z,30.02
2023-03-21T06:40:40.961Z,29.50
2023-03-21T06:43:11.130Z,28.73
2023-03-21T06:45:41.748Z,29.75
2023-03-21T06:48:12.057Z,29.50
2023-03-21T06:50:50.862Z,28.80
2023-03-21T06:53:20.932Z,30.68
2023-03-21T06:55:52.278Z,30.68
2023-03-21T06:58:22.825Z,30.05
2023-03-21T07:00:52.333Z,29.35
2023-03-21T07:03:21.340Z,31.50
2023-03-21T07:05:50.437Z,29.87
2023-03-21T07:08:19.332Z,30.25
2023-03-21T07:10:48.752Z,31.02
2023-03-21T07:13:18.672Z,29.42
2023-03-21T07:15:49.390Z,31.48
2023-03-21T07:18:19.697Z,30.02
2023-03-21T07:20:50.473Z,28.15
2023-03-21T07:23:23.551Z,32.15
2023-03-21T07:25:54.171Z,30.57
2023-03-21T07:28:24.989Z,32.15
2023-03-21T07:31:01.333Z,30.92
2023-03-21T07:33:31.470Z,33.25
2023-03-21T07:36:01.863Z,31.70
2023-03-21T07:38:34.057Z,29.27
2023-03-21T07:41:03.082Z,30.43
2023-03-21T07:43:37.116Z,30.20
2023-03-21T07:46:10.594Z,33.83
2023-03-21T07:48:41.965Z,32.80
2023-03-21T07:51:12.145Z,30.92
2023-03-21T07:53:41.894Z,31.80
2023-03-21T07:56:12.928Z,30.82
2023-03-21T07:58:43.542Z,30.10
2023-03-21T08:01:13.495Z,26.48
2023-03-21T08:03:43.133Z,27.67
2023-03-21T08:06:12.073Z,26.02
2023-03-21T08:08:40.877Z,26.80
2023-03-21T08:11:10.859Z,28.38
2023-03-21T08:13:40.498Z,27.95
2023-03-21T08:16:10.638Z,26.65
2023-03-21T08:18:42.603Z,26.97
2023-03-21T08:21:12.870Z,24.60
2023-03-21T08:23:42.195Z,25.90
2023-03-21T08:26:15.372Z,25.17
2023-03-21T08:28:44.452Z,23.52
2023-03-21T08:31:14.328Z,24.27
2023-03-21T08:33:43.519Z,26.50
2023-03-21T08:36:12.873Z,23.07
2023-03-21T08:38:45.795Z,24.77
2023-03-21T08:41:16.513Z,23.07
2023-03-21T08:43:46.038Z,23.83
2023-03-21T08:46:15.095Z,24.75
2023-03-21T08:48:44.709Z,24.07
2023-03-21T08:51:13.916Z,24.77
2023-03-21T08:53:44.551Z,27.48
2023-03-21T08:56:15.034Z,25.88
2023-03-21T08:58:47.327Z,25.60
2023-03-21T09:01:17.031Z,25.82
2023-03-21T09:03:45.999Z,23.57
2023-03-21T09:06:17.208Z,22.17
2023-03-21T09:08:46.030Z,25.85
2023-03-21T09:11:14.617Z,23.98
2023-03-21T09:13:44.510Z,23.57
2023-03-21T09:16:13.296Z,24.00
2023-03-21T09:18:45.088Z,23.32
2023-03-21T09:21:15.713Z,22.52
2023-03-21T09:23:47.891Z,21.57
2023-03-21T09:26:17.565Z,20.92
2023-03-21T09:28:53.218Z,23.07
2023-03-21T09:31:30.858Z,21.15
2023-03-21T09:34:03.790Z,20.82
2023-03-21T09:36:36.315Z,21.57
2023-03-21T09:39:09.592Z,21.37
2023-03-21T09:42:05.761Z,23.52
2023-03-21T09:44:45.363Z,20.60
2023-03-21T09:47:31.272Z,21.55
2023-03-21T09:50:15.641Z,19.57
2023-03-21T09:53:02.227Z,17.98
2023-03-21T09:55:39.874Z,22.20
2023-03-21T09:58:46.034Z,18.98
2023-03-21T10:01:28.306Z,22.30
2023-03-21T10:04:01.046Z,19.75
2023-03-21T10:06:39.093Z,19.52
2023-03-21T10:09:24.703Z,18.65
2023-03-21T10:12:29.819Z,19.52
2023-03-21T10:15:04.160Z,18.30
2023-03-21T10:17:44.243Z,19.42
2023-03-21T10:20:31.532Z,18.00
2023-03-21T10:25:51.625Z,17.25
2023-03-21T10:28:24.143Z,18.15
2023-03-21T10:31:01.138Z,17.92
2023-03-21T10:33:42.867Z,17.37
2023-03-21T10:36:22.248Z,19.62
2023-03-21T10:39:12.544Z,18.62
2023-03-21T10:41:59.076Z,18.50
2023-03-21T10:44:42.342Z,18.07
2023-03-21T10:47:11.917Z,19.10
2023-03-21T10:50:06.456Z,18.48
2023-03-21T10:52:18.652Z,18.32
2023-03-21T10:54:54.084Z,18.57
2023-03-21T10:57:44.444Z,18.80
2023-03-21T11:00:27.693Z,19.23
2023-03-21T11:03:11.198Z,19.77
2023-03-21T11:05:43.549Z,19.40
2023-03-21T11:08:17.986Z,20.25
2023-03-21T11:10:57.733Z,23.15
2023-03-21T11:13:35.516Z,19.15
2023-03-21T11:16:21.086Z,19.75
2023-03-21T11:18:51.809Z,19.35
2023-03-21T11:21:29.648Z,18.65
2023-03-21T11:23:59.116Z,24.10
2023-03-21T11:26:36.458Z,19.32
2023-03-21T11:29:26.039Z,19.27
2023-03-21T11:32:11.656Z,20.30
2023-03-21T11:35:05.080Z,20.05
2023-03-21T11:37:41.479Z,20.17
2023-03-21T11:40:27.707Z,20.72
2023-03-21T11:43:03.321Z,19.85
2023-03-21T11:48:14.590Z,17.17
2023-03-21T11:50:48.657Z,17.73
2023-03-21T11:53:39.910Z,19.35
2023-03-21T11:56:36.500Z,20.23
2023-03-21T11:59:32.437Z,18.73
2023-03-21T12:02:50.733Z,18.45
2023-03-21T12:05:21.949Z,16.20
2023-03-21T12:08:36.276Z,15.83
2023-03-21T12:11:20.270Z,17.02
2023-03-21T12:14:01.110Z,19.40
2023-03-21T12:16:55.699Z,18.85
2023-03-21T12:19:48.904Z,18.95
2023-03-21T12:22:36.591Z,19.00
2023-03-21T12:25:21.496Z,18.45
2023-03-21T12:28:06.365Z,16.75
2023-03-21T12:30:59.357Z,17.32
2023-03-21T12:33:49.277Z,16.67
2023-03-21T12:36:43.879Z,16.25
2023-03-21T12:39:24.174Z,16.10
2023-03-21T12:42:39.810Z,18.73
2023-03-21T12:45:20.374Z,18.57
2023-03-21T12:47:53.439Z,18.02
2023-03-21T12:50:29.744Z,16.55
2023-03-21T12:53:11.523Z,17.45
2023-03-21T12:55:40.710Z,16.97
2023-03-21T12:58:18.988Z,15.58
2023-03-21T13:00:51.677Z,16.70
2023-03-21T13:03:40.570Z,16.37
2023-03-21T13:06:11.678Z,16.32
2023-03-21T13:08:51.373Z,16.50
2023-03-21T13:11:23.437Z,15.63
2023-03-21T13:14:21.748Z,16.77
2023-03-21T13:17:01.449Z,16.50
2023-03-21T13:19:46.411Z,16.80
2023-03-21T13:22:30.701Z,16.67
2023-03-21T13:25:22.591Z,16.57
2023-03-21T13:28:04.244Z,16.93
2023-03-21T13:30:35.139Z,16.75
2023-03-21T13:33:27.101Z,17.90
2023-03-21T13:36:10.717Z,16.87
2023-03-21T13:38:49.322Z,16.67
2023-03-21T13:44:09.558Z,15.45
2023-03-21T13:46:54.032Z,13.45
2023-03-21T13:49:36.564Z,13.72
2023-03-21T13:52:22.033Z,15.20
2023-03-21T13:54:54.501Z,14.58
2023-03-21T13:57:34.643Z,15.23
2023-03-21T14:00:25.993Z,15.32
2023-03-21T14:03:14.415Z,15.63
2023-03-21T14:05:54.143Z,15.67
2023-03-21T14:08:37.177Z,17.40
2023-03-21T14:11:08.753Z,16.02
2023-03-21T14:13:51.710Z,16.27
2023-03-21T14:16:22.243Z,16.80
2023-03-21T14:18:58.101Z,17.92
2023-03-21T14:21:35.176Z,17.98
2023-03-21T14:24:07.374Z,17.77
2023-03-21T14:26:40.050Z,15.88
2023-03-21T14:29:25.260Z,15.80
2023-03-21T14:31:40.867Z,17.35
2023-03-21T14:34:09.643Z,16.75
2023-03-21T14:36:43.117Z,16.00
2023-03-21T14:39:25.997Z,17.37
2023-03-21T14:41:59.244Z,15.70
2023-03-21T14:44:53.882Z,15.83
2023-03-21T14:47:29.065Z,16.80
2023-03-21T14:49:57.742Z,16.55
2023-03-21T14:52:32.505Z,16.57
2023-03-21T14:55:08.128Z,15.00
2023-03-21T14:57:38.879Z,15.15
2023-03-21T15:00:17.341Z,15.23
2023-03-21T15:02:50.390Z,14.73
2023-03-21T15:05:37.285Z,15.30
2023-03-21T15:08:15.341Z,15.70
2023-03-21T15:11:08.323Z,16.07
2023-03-21T15:13:34.541Z,15.68
2023-03-21T15:16:03.729Z,16.80
2023-03-21T15:18:41.836Z,17.17
2023-03-21T15:21:24.488Z,19.67
2023-03-21T15:23:57.375Z,19.87
2023-03-21T15:26:28.079Z,21.40
2023-03-21T15:28:59.500Z,21.45
2023-03-21T15:31:31.715Z,20.17
2023-03-21T15:34:03.096Z,20.08
2023-03-21T15:36:38.043Z,19.90
2023-03-21T15:39:12.655Z,21.35
2023-03-21T15:42:06.301Z,20.65
2023-03-21T15:44:36.060Z,20.45
2023-03-21T15:47:05.826Z,20.80
2023-03-21T15:49:36.981Z,19.30
2023-03-21T15:52:11.352Z,19.75
2023-03-21T15:54:52.627Z,19.07
2023-03-21T15:57:23.992Z,21.52
2023-03-21T15:59:59.170Z,18.92
2023-03-21T16:02:29.934Z,18.60
2023-03-21T16:05:25.208Z,19.77
2023-03-21T16:07:56.785Z,19.92
2023-03-21T16:10:36.524Z,18.57
2023-03-21T16:13:06.336Z,18.30
2023-03-21T16:15:36.201Z,18.02
2023-03-21T16:18:05.956Z,20.90
2023-03-21T16:20:43.712Z,17.27
2023-03-21T16:25:43.369Z,17.70
2023-03-21T16:28:16.510Z,15.35
2023-03-21T16:30:45.449Z,15.95
2023-03-21T16:33:15.659Z,17.10
2023-03-21T16:35:45.349Z,17.57
2023-03-21T16:38:16.163Z,17.45
2023-03-21T16:40:46.175Z,17.75
2023-03-21T16:43:15.462Z,17.30
2023-03-21T16:45:44.937Z,18.35
2023-03-21T16:48:16.689Z,17.98
2023-03-21T16:50:50.076Z,19.10
2023-03-21T16:53:18.655Z,18.02
2023-03-21T16:55:47.744Z,18.90
2023-03-21T16:58:18.551Z,19.10
2023-03-21T17:00:48.326Z,19.85
2023-03-21T17:03:19.344Z,20.75
2023-03-21T17:05:52.308Z,20.95
2023-03-21T17:08:27.880Z,22.00
2023-03-21T17:10:58.682Z,22.48
2023-03-21T17:13:27.816Z,22.77
2023-03-21T17:15:57.107Z,21.50
2023-03-21T17:18:31.162Z,20.85
2023-03-21T17:21:00.520Z,21.87
2023-03-21T17:23:29.690Z,21.20
2023-03-21T17:25:59.800Z,21.65
2023-03-21T17:28:28.879Z,21.75
2023-03-21T17:30:59.258Z,20.88
2023-03-21T17:33:28.783Z,21.68
2023-03-21T17:35:57.928Z,22.58
2023-03-21T17:38:27.610Z,23.47
2023-03-21T17:40:58.099Z,23.80
2023-03-21T17:43:29.484Z,23.92
2023-03-21T17:46:00.202Z,21.55
2023-03-21T17:48:29.254Z,24.65
2023-03-21T17:50:58.038Z,23.65
2023-03-21T17:53:26.969Z,24.07
2023-03-21T17:55:57.814Z,23.75
2023-03-21T17:58:28.190Z,24.57
2023-03-21T18:00:57.599Z,24.00
2023-03-21T18:03:27.583Z,23.10
2023-03-21T18:05:56.796Z,23.55
2023-03-21T18:08:27.313Z,22.90
2023-03-21T18:10:57.210Z,23.77
2023-03-21T18:13:26.350Z,23.80
2023-03-21T18:15:56.371Z,23.80
2023-03-21T18:18:27.139Z,27.25
2023-03-21T18:20:58.356Z,29.82
2023-03-21T18:23:27.288Z,28.25
2023-03-21T18:25:57.041Z,27.75
2023-03-21T18:28:28.160Z,27.70
2023-03-21T18:31:10.272Z,28.70
2023-03-21T18:33:29.944Z,29.90
2023-03-21T18:36:00.806Z,30.32
2023-03-21T18:38:32.692Z,30.95
2023-03-21T18:41:02.201Z,30.43
2023-03-21T18:46:05.296Z,30.80
2023-03-21T18:48:35.644Z,31.68
2023-03-21T18:51:05.688Z,30.35
2023-03-21T18:53:36.531Z,30.37
2023-03-21T18:56:10.177Z,31.45
2023-03-21T18:58:38.391Z,30.82
2023-03-21T19:01:08.036Z,31.57
2023-03-21T19:03:37.660Z,30.45
2023-03-21T19:06:09.104Z,29.85
2023-03-21T19:08:41.751Z,27.82
2023-03-21T19:11:11.736Z,28.92
2023-03-21T19:13:40.688Z,30.60
2023-03-21T19:16:11.485Z,29.52
2023-03-21T19:18:53.930Z,28.17
2023-03-21T19:21:14.349Z,29.85
2023-03-21T19:24:20.919Z,29.12
2023-03-21T19:26:17.516Z,26.87
2023-03-21T19:28:47.019Z,27.50
2023-03-21T19:31:17.571Z,26.65
2023-03-21T19:33:48.296Z,27.15
2023-03-21T19:36:22.210Z,24.70
2023-03-21T19:38:48.453Z,23.18
2023-03-21T19:41:17.930Z,23.32
2023-03-21T19:43:54.328Z,23.57
2023-03-21T19:46:20.141Z,23.25
2023-03-21T19:48:49.870Z,22.85
2023-03-21T19:51:28.321Z,22.32
2023-03-21T19:53:49.543Z,21.45
2023-03-21T19:56:23.071Z,20.75
2023-03-21T19:58:49.234Z,22.65
2023-03-21T20:01:18.393Z,20.17
2023-03-21T20:03:47.770Z,20.72
2023-03-21T20:06:16.885Z,20.37
2023-03-21T20:11:17.804Z,20.32
2023-03-21T20:13:50.606Z,20.52
2023-03-21T20:16:20.419Z,18.80
2023-03-21T20:18:49.662Z,20.48
2023-03-21T20:21:23.960Z,19.40
2023-03-21T20:23:50.965Z,20.10
2023-03-21T20:26:20.549Z,20.05
2023-03-21T20:29:00.253Z,21.02
2023-03-21T20:31:24.484Z,21.62
2023-03-21T20:33:53.238Z,21.42
2023-03-21T20:36:41.094Z,21.62
2023-03-21T20:38:55.620Z,20.00
2023-03-21T20:41:24.678Z,20.77
2023-03-21T20:46:28.373Z,20.37
2023-03-21T20:48:59.685Z,21.33
2023-03-21T20:53:59.299Z,20.00
2023-03-21T20:56:30.038Z,19.37
2023-03-21T20:59:14.945Z,21.00
2023-03-21T21:01:33.049Z,21.68
2023-03-21T21:04:03.322Z,20.68
2023-03-21T21:06:33.559Z,21.40
2023-03-21T21:09:04.174Z,20.23
2023-03-21T21:14:04.696Z,20.92
2023-03-21T21:16:34.493Z,19.92
2023-03-21T21:19:03.274Z,20.23
2023-03-21T21:21:33.247Z,19.95
2023-03-21T21:24:02.913Z,18.82
2023-03-21T21:26:32.851Z,18.87
2023-03-21T21:29:01.591Z,22.45
2023-03-21T21:31:34.053Z,23.50
2023-03-21T21:34:04.934Z,22.55
2023-03-21T21:36:36.360Z,24.10
2023-03-21T21:39:07.274Z,22.50
2023-03-21T21:41:36.368Z,20.12
2023-03-21T21:44:06.779Z,20.15
2023-03-21T21:46:36.380Z,19.73
2023-03-21T21:49:08.476Z,20.10
2023-03-21T21:51:39.742Z,18.75
2023-03-21T21:54:09.708Z,19.07
2023-03-21T21:56:38.962Z,18.70
2023-03-21T21:59:08.802Z,17.92
2023-03-21T22:01:41.151Z,17.87
2023-03-21T22:04:13.649Z,17.00
2023-03-21T22:06:42.988Z,17.20
2023-03-21T22:09:11.744Z,15.85
2023-03-21T22:11:41.527Z,16.97
2023-03-21T22:14:10.327Z,16.70
2023-03-21T22:16:40.086Z,15.83
2023-03-21T22:19:09.618Z,15.70
2023-03-21T22:21:40.236Z,16.25
2023-03-21T22:24:10.587Z,15.48
2023-03-21T22:26:39.900Z,15.93
2023-03-21T22:29:10.376Z,16.45
2023-03-21T22:31:41.152Z,16.37
2023-03-21T22:34:12.972Z,16.35
2023-03-21T22:36:43.492Z,16.02
2023-03-21T22:39:12.416Z,16.25
2023-03-21T22:41:41.330Z,16.75
2023-03-21T22:44:10.088Z,15.63
2023-03-21T22:46:38.950Z,16.35
2023-03-21T22:49:09.211Z,16.37
2023-03-21T22:51:38.226Z,16.23
2023-03-21T22:54:07.328Z,16.17
2023-03-21T22:56:37.749Z,16.67
2023-03-21T22:59:07.028Z,16.50
2023-03-21T23:01:39.725Z,16.50
2023-03-21T23:04:09.525Z,16.65
2023-03-21T23:06:40.597Z,16.65
2023-03-21T23:09:11.343Z,17.48
2023-03-21T23:11:40.518Z,16.15
2023-03-21T23:14:09.789Z,16.10
2023-03-21T23:16:40.693Z,17.35
2023-03-21T23:19:10.228Z,17.55
2023-03-21T23:21:40.503Z,17.55
2023-03-21T23:24:10.601Z,18.40
2023-03-21T23:26:39.781Z,17.60
2023-03-21T23:29:09.817Z,16.85
2023-03-21T23:31:39.250Z,17.55
2023-03-21T23:34:12.140Z,17.98
2023-03-21T23:36:42.494Z,16.93
2023-03-21T23:39:13.651Z,15.60
2023-03-21T23:41:45.107Z,16.80
2023-03-21T23:44:15.176Z,17.27
2023-03-21T23:46:43.880Z,17.23
2023-03-21T23:49:15.228Z,17.07
2023-03-21T23:51:45.538Z,16.02
2023-03-21T23:54:14.770Z,15.85
2023-03-21T23:56:43.596Z,17.00
2023-03-21T23:59:14.788Z,16.60
